sensor_id;sensor_type;location;lat;lon;timestamp;P1;durP1;ratioP1;P2;durP2;ratioP2
31910;SDS011;18457;52.432;16.914;2023-05-18T00:02:16;6.90;;;2.90;;
31910;SDS011;18457;52.432;16.914;2023-05-18T00:04:49;9.60;;;2.80;;
31910;SDS011;18457;52.432;16.914;2023-05-18T00:07:22;8.10;;;2.90;;
31910;SDS011;18457;52.432;16.914;2023-05-18T00:09:54;11.70;;;3.10;;
31910;SDS011;18457;52.432;16.914;2023-05-18T00:12:26;8.60;;;2.90;;
31910;SDS011;18457;52.432;16.914;2023-05-18T00:14:59;7.60;;;2.90;;
31910;SDS011;18457;52.432;16.914;2023-05-18T00:17:33;5.20;;;2.30;;
31910;SDS011;18457;52.432;16.914;2023-05-18T00:20:05;7.50;;;2.60;;
31910;SDS011;18457;52.432;16.914;2023-05-18T00:22:39;12.60;;;3.00;;
31910;SDS011;18457;52.432;16.914;2023-05-18T00:25:11;11.80;;;2.40;;
31910;SDS011;18457;52.432;16.914;2023-05-18T00:27:43;8.00;;;2.70;;
31910;SDS011;18457;52.432;16.914;2023-05-18T00:30:20;10.60;;;2.60;;
31910;SDS011;18457;52.432;16.914;2023-05-18T00:32:54;6.80;;;3.10;;
31910;SDS011;18457;52.432;16.914;2023-05-18T00:35:26;12.50;;;3.40;;
31910;SDS011;18457;52.432;16.914;2023-05-18T00:37:59;16.10;;;2.70;;
31910;SDS011;18457;52.432;16.914;2023-05-18T00:40:31;5.80;;;2.60;;
31910;SDS011;18457;52.432;16.914;2023-05-18T00:43:04;10.80;;;2.80;;
31910;SDS011;18457;52.432;16.914;2023-05-18T00:45:36;9.20;;;2.80;;
31910;SDS011;18457;52.432;16.914;2023-05-18T00:48:08;7.50;;;2.30;;
31910;SDS011;18457;52.432;16.914;2023-05-18T00:50:41;5.90;;;2.00;;
31910;SDS011;18457;52.432;16.914;2023-05-18T00:53:14;7.30;;;2.10;;
31910;SDS011;18457;52.432;16.914;2023-05-18T00:55:46;3.70;;;1.60;;
31910;SDS011;18457;52.432;16.914;2023-05-18T00:58:18;6.30;;;2.10;;
31910;SDS011;18457;52.432;16.914;2023-05-18T01:00:51;6.00;;;2.10;;
31910;SDS011;18457;52.432;16.914;2023-05-18T01:05:58;9.60;;;2.00;;
31910;SDS011;18457;52.432;16.914;2023-05-18T01:08:33;10.10;;;2.70;;
31910;SDS011;18457;52.432;16.914;2023-05-18T01:11:09;5.60;;;2.40;;
31910;SDS011;18457;52.432;16.914;2023-05-18T01:16:39;9.20;;;2.60;;
31910;SDS011;18457;52.432;16.914;2023-05-18T01:19:24;7.90;;;2.30;;
31910;SDS011;18457;52.432;16.914;2023-05-18T01:22:18;13.10;;;2.20;;
31910;SDS011;18457;52.432;16.914;2023-05-18T01:25:04;12.40;;;2.50;;
31910;SDS011;18457;52.432;16.914;2023-05-18T01:27:47;6.70;;;2.30;;
31910;SDS011;18457;52.432;16.914;2023-05-18T01:30:24;9.50;;;2.50;;
31910;SDS011;18457;52.432;16.914;2023-05-18T01:32:57;10.20;;;2.40;;
31910;SDS011;18457;52.432;16.914;2023-05-18T01:38:01;8.30;;;2.80;;
31910;SDS011;18457;52.432;16.914;2023-05-18T01:40:35;10.70;;;2.90;;
31910;SDS011;18457;52.432;16.914;2023-05-18T01:43:15;7.10;;;3.20;;
31910;SDS011;18457;52.432;16.914;2023-05-18T01:45:50;13.10;;;2.80;;
31910;SDS011;18457;52.432;16.914;2023-05-18T01:48:27;6.40;;;2.80;;
31910;SDS011;18457;52.432;16.914;2023-05-18T01:51:02;10.50;;;3.00;;
31910;SDS011;18457;52.432;16.914;2023-05-18T01:53:40;10.80;;;3.10;;
31910;SDS011;18457;52.432;16.914;2023-05-18T01:56:16;8.00;;;3.30;;
31910;SDS011;18457;52.432;16.914;2023-05-18T01:58:50;9.70;;;3.60;;
31910;SDS011;18457;52.432;16.914;2023-05-18T02:01:23;17.80;;;4.20;;
31910;SDS011;18457;52.432;16.914;2023-05-18T02:03:56;13.20;;;3.10;;
31910;SDS011;18457;52.432;16.914;2023-05-18T02:06:29;10.40;;;3.50;;
31910;SDS011;18457;52.432;16.914;2023-05-18T02:09:01;12.20;;;3.10;;
31910;SDS011;18457;52.432;16.914;2023-05-18T02:11:35;18.00;;;3.70;;
31910;SDS011;18457;52.432;16.914;2023-05-18T02:14:09;12.60;;;3.20;;
31910;SDS011;18457;52.432;16.914;2023-05-18T02:16:44;9.30;;;3.50;;
31910;SDS011;18457;52.432;16.914;2023-05-18T02:19:22;13.20;;;4.70;;
31910;SDS011;18457;52.432;16.914;2023-05-18T02:21:55;15.90;;;3.70;;
31910;SDS011;18457;52.432;16.914;2023-05-18T02:24:27;10.70;;;3.60;;
31910;SDS011;18457;52.432;16.914;2023-05-18T02:27:00;14.00;;;3.50;;
31910;SDS011;18457;52.432;16.914;2023-05-18T02:29:32;17.80;;;3.30;;
31910;SDS011;18457;52.432;16.914;2023-05-18T02:32:05;9.70;;;3.00;;
31910;SDS011;18457;52.432;16.914;2023-05-18T02:34:39;9.00;;;3.40;;
31910;SDS011;18457;52.432;16.914;2023-05-18T02:37:11;13.20;;;3.40;;
31910;SDS011;18457;52.432;16.914;2023-05-18T02:39:44;7.40;;;3.00;;
31910;SDS011;18457;52.432;16.914;2023-05-18T02:42:16;7.30;;;3.20;;
31910;SDS011;18457;52.432;16.914;2023-05-18T02:44:48;12.30;;;3.50;;
31910;SDS011;18457;52.432;16.914;2023-05-18T02:47:20;11.30;;;3.80;;
31910;SDS011;18457;52.432;16.914;2023-05-18T02:49:52;8.40;;;2.10;;
31910;SDS011;18457;52.432;16.914;2023-05-18T02:52:25;10.90;;;2.90;;
31910;SDS011;18457;52.432;16.914;2023-05-18T02:54:57;11.40;;;3.80;;
31910;SDS011;18457;52.432;16.914;2023-05-18T02:57:48;9.70;;;3.90;;
31910;SDS011;18457;52.432;16.914;2023-05-18T03:00:31;7.90;;;3.00;;
31910;SDS011;18457;52.432;16.914;2023-05-18T03:03:04;10.80;;;3.50;;
31910;SDS011;18457;52.432;16.914;2023-05-18T03:05:39;13.70;;;3.60;;
31910;SDS011;18457;52.432;16.914;2023-05-18T03:08:11;11.10;;;2.70;;
31910;SDS011;18457;52.432;16.914;2023-05-18T03:10:43;13.30;;;3.10;;
31910;SDS011;18457;52.432;16.914;2023-05-18T03:13:16;9.20;;;2.80;;
31910;SDS011;18457;52.432;16.914;2023-05-18T03:15:48;9.70;;;3.50;;
31910;SDS011;18457;52.432;16.914;2023-05-18T03:18:21;15.60;;;3.40;;
31910;SDS011;18457;52.432;16.914;2023-05-18T03:20:55;14.70;;;3.40;;
31910;SDS011;18457;52.432;16.914;2023-05-18T03:23:30;8.40;;;4.00;;
31910;SDS011;18457;52.432;16.914;2023-05-18T03:26:03;11.70;;;3.70;;
31910;SDS011;18457;52.432;16.914;2023-05-18T03:28:39;8.30;;;3.20;;
31910;SDS011;18457;52.432;16.914;2023-05-18T03:31:11;8.20;;;3.10;;
31910;SDS011;18457;52.432;16.914;2023-05-18T03:33:43;15.40;;;3.60;;
31910;SDS011;18457;52.432;16.914;2023-05-18T03:36:17;9.90;;;3.70;;
31910;SDS011;18457;52.432;16.914;2023-05-18T03:38:50;8.10;;;3.70;;
31910;SDS011;18457;52.432;16.914;2023-05-18T03:41:23;8.00;;;3.00;;
31910;SDS011;18457;52.432;16.914;2023-05-18T03:43:55;14.20;;;3.40;;
31910;SDS011;18457;52.432;16.914;2023-05-18T03:46:29;10.70;;;3.70;;
31910;SDS011;18457;52.432;16.914;2023-05-18T03:49:01;13.30;;;3.20;;
31910;SDS011;18457;52.432;16.914;2023-05-18T03:51:40;8.10;;;3.30;;
31910;SDS011;18457;52.432;16.914;2023-05-18T03:54:12;9.20;;;3.30;;
31910;SDS011;18457;52.432;16.914;2023-05-18T03:56:44;14.00;;;3.50;;
31910;SDS011;18457;52.432;16.914;2023-05-18T03:59:18;10.10;;;2.90;;
31910;SDS011;18457;52.432;16.914;2023-05-18T04:01:51;12.20;;;3.70;;
31910;SDS011;18457;52.432;16.914;2023-05-18T04:06:56;7.70;;;3.10;;
31910;SDS011;18457;52.432;16.914;2023-05-18T04:09:30;13.50;;;3.50;;
31910;SDS011;18457;52.432;16.914;2023-05-18T04:12:03;10.60;;;3.40;;
31910;SDS011;18457;52.432;16.914;2023-05-18T04:14:36;11.20;;;3.40;;
31910;SDS011;18457;52.432;16.914;2023-05-18T04:17:10;11.70;;;4.50;;
31910;SDS011;18457;52.432;16.914;2023-05-18T04:19:43;8.50;;;3.50;;
31910;SDS011;18457;52.432;16.914;2023-05-18T04:22:15;17.00;;;4.00;;
31910;SDS011;18457;52.432;16.914;2023-05-18T04:24:48;14.00;;;4.20;;
31910;SDS011;18457;52.432;16.914;2023-05-18T04:27:23;13.00;;;4.20;;
31910;SDS011;18457;52.432;16.914;2023-05-18T04:29:57;12.80;;;4.00;;
31910;SDS011;18457;52.432;16.914;2023-05-18T04:32:31;14.40;;;4.00;;
31910;SDS011;18457;52.432;16.914;2023-05-18T04:35:05;16.00;;;4.40;;
31910;SDS011;18457;52.432;16.914;2023-05-18T04:37:38;15.70;;;4.10;;
31910;SDS011;18457;52.432;16.914;2023-05-18T04:40:14;17.50;;;4.40;;
31910;SDS011;18457;52.432;16.914;2023-05-18T04:42:49;7.20;;;3.70;;
31910;SDS011;18457;52.432;16.914;2023-05-18T04:45:27;16.40;;;4.00;;
31910;SDS011;18457;52.432;16.914;2023-05-18T04:48:01;13.30;;;3.70;;
31910;SDS011;18457;52.432;16.914;2023-05-18T04:53:05;8.40;;;2.40;;
31910;SDS011;18457;52.432;16.914;2023-05-18T04:55:40;15.10;;;2.80;;
31910;SDS011;18457;52.432;16.914;2023-05-18T04:58:14;10.60;;;2.50;;
31910;SDS011;18457;52.432;16.914;2023-05-18T05:00:46;18.50;;;3.20;;
31910;SDS011;18457;52.432;16.914;2023-05-18T05:03:18;14.80;;;2.90;;
31910;SDS011;18457;52.432;16.914;2023-05-18T05:05:53;15.10;;;2.70;;
31910;SDS011;18457;52.432;16.914;2023-05-18T05:08:25;18.00;;;3.10;;
31910;SDS011;18457;52.432;16.914;2023-05-18T05:10:58;11.60;;;2.70;;
31910;SDS011;18457;52.432;16.914;2023-05-18T05:13:30;12.80;;;2.60;;
31910;SDS011;18457;52.432;16.914;2023-05-18T05:16:04;9.80;;;2.30;;
31910;SDS011;18457;52.432;16.914;2023-05-18T05:18:37;10.10;;;2.10;;
31910;SDS011;18457;52.432;16.914;2023-05-18T05:21:10;23.40;;;3.10;;
31910;SDS011;18457;52.432;16.914;2023-05-18T05:26:14;6.70;;;1.90;;
31910;SDS011;18457;52.432;16.914;2023-05-18T05:28:46;19.50;;;2.40;;
31910;SDS011;18457;52.432;16.914;2023-05-18T05:31:18;12.50;;;4.10;;
31910;SDS011;18457;52.432;16.914;2023-05-18T05:33:52;11.60;;;2.70;;
31910;SDS011;18457;52.432;16.914;2023-05-18T05:36:24;9.30;;;2.30;;
31910;SDS011;18457;52.432;16.914;2023-05-18T05:38:57;8.40;;;2.30;;
31910;SDS011;18457;52.432;16.914;2023-05-18T05:41:29;11.00;;;2.30;;
31910;SDS011;18457;52.432;16.914;2023-05-18T05:44:01;8.70;;;2.40;;
31910;SDS011;18457;52.432;16.914;2023-05-18T05:46:34;4.20;;;2.40;;
31910;SDS011;18457;52.432;16.914;2023-05-18T05:49:06;17.20;;;2.60;;
31910;SDS011;18457;52.432;16.914;2023-05-18T05:51:38;6.90;;;1.40;;
31910;SDS011;18457;52.432;16.914;2023-05-18T05:54:10;8.90;;;2.20;;
31910;SDS011;18457;52.432;16.914;2023-05-18T05:56:42;11.90;;;1.70;;
31910;SDS011;18457;52.432;16.914;2023-05-18T05:59:14;7.20;;;2.30;;
31910;SDS011;18457;52.432;16.914;2023-05-18T06:04:17;6.70;;;2.10;;
31910;SDS011;18457;52.432;16.914;2023-05-18T06:06:49;5.40;;;1.70;;
31910;SDS011;18457;52.432;16.914;2023-05-18T06:09:22;11.00;;;2.60;;
31910;SDS011;18457;52.432;16.914;2023-05-18T06:11:55;12.10;;;2.40;;
31910;SDS011;18457;52.432;16.914;2023-05-18T06:14:28;8.40;;;2.00;;
31910;SDS011;18457;52.432;16.914;2023-05-18T06:17:00;6.70;;;2.10;;
31910;SDS011;18457;52.432;16.914;2023-05-18T06:19:32;10.30;;;2.70;;
31910;SDS011;18457;52.432;16.914;2023-05-18T06:22:05;8.50;;;2.10;;
31910;SDS011;18457;52.432;16.914;2023-05-18T06:24:45;7.70;;;1.60;;
31910;SDS011;18457;52.432;16.914;2023-05-18T06:27:38;8.90;;;2.20;;
31910;SDS011;18457;52.432;16.914;2023-05-18T06:33:04;9.20;;;2.00;;
31910;SDS011;18457;52.432;16.914;2023-05-18T06:35:37;3.50;;;1.60;;
31910;SDS011;18457;52.432;16.914;2023-05-18T06:38:09;7.20;;;1.50;;
31910;SDS011;18457;52.432;16.914;2023-05-18T06:40:41;14.00;;;2.10;;
31910;SDS011;18457;52.432;16.914;2023-05-18T06:43:13;32.10;;;3.10;;
31910;SDS011;18457;52.432;16.914;2023-05-18T06:45:50;5.80;;;1.80;;
31910;SDS011;18457;52.432;16.914;2023-05-18T06:48:37;7.70;;;1.50;;
31910;SDS011;18457;52.432;16.914;2023-05-18T06:51:12;4.20;;;1.80;;
31910;SDS011;18457;52.432;16.914;2023-05-18T06:53:45;4.60;;;1.30;;
31910;SDS011;18457;52.432;16.914;2023-05-18T06:56:18;4.50;;;1.50;;
31910;SDS011;18457;52.432;16.914;2023-05-18T06:58:50;8.40;;;1.50;;
31910;SDS011;18457;52.432;16.914;2023-05-18T07:03:57;4.00;;;1.20;;
31910;SDS011;18457;52.432;16.914;2023-05-18T07:06:29;10.40;;;1.20;;
31910;SDS011;18457;52.432;16.914;2023-05-18T07:09:02;5.50;;;1.30;;
31910;SDS011;18457;52.432;16.914;2023-05-18T07:11:36;14.70;;;1.50;;
31910;SDS011;18457;52.432;16.914;2023-05-18T07:16:39;3.10;;;1.50;;
31910;SDS011;18457;52.432;16.914;2023-05-18T07:19:12;3.80;;;1.30;;
31910;SDS011;18457;52.432;16.914;2023-05-18T07:21:44;6.70;;;1.70;;
31910;SDS011;18457;52.432;16.914;2023-05-18T07:24:16;5.70;;;1.20;;
31910;SDS011;18457;52.432;16.914;2023-05-18T07:26:48;5.60;;;1.50;;
31910;SDS011;18457;52.432;16.914;2023-05-18T07:29:20;3.60;;;1.10;;
31910;SDS011;18457;52.432;16.914;2023-05-18T07:31:52;6.80;;;1.30;;
31910;SDS011;18457;52.432;16.914;2023-05-18T07:34:24;2.80;;;1.30;;
31910;SDS011;18457;52.432;16.914;2023-05-18T07:36:56;4.20;;;1.40;;
31910;SDS011;18457;52.432;16.914;2023-05-18T07:39:28;5.10;;;1.50;;
31910;SDS011;18457;52.432;16.914;2023-05-18T07:42:00;2.70;;;1.30;;
31910;SDS011;18457;52.432;16.914;2023-05-18T07:44:32;4.50;;;1.20;;
31910;SDS011;18457;52.432;16.914;2023-05-18T07:47:04;2.20;;;0.90;;
31910;SDS011;18457;52.432;16.914;2023-05-18T07:49:37;2.90;;;1.10;;
31910;SDS011;18457;52.432;16.914;2023-05-18T07:52:09;2.90;;;1.20;;
31910;SDS011;18457;52.432;16.914;2023-05-18T07:54:40;5.60;;;1.10;;
31910;SDS011;18457;52.432;16.914;2023-05-18T07:57:12;3.40;;;1.10;;
31910;SDS011;18457;52.432;16.914;2023-05-18T07:59:44;11.90;;;1.60;;
31910;SDS011;18457;52.432;16.914;2023-05-18T08:02:16;3.70;;;1.10;;
31910;SDS011;18457;52.432;16.914;2023-05-18T08:04:48;3.00;;;1.00;;
31910;SDS011;18457;52.432;16.914;2023-05-18T08:07:21;6.40;;;1.90;;
31910;SDS011;18457;52.432;16.914;2023-05-18T08:09:54;5.30;;;1.70;;
31910;SDS011;18457;52.432;16.914;2023-05-18T08:12:26;2.40;;;1.30;;
31910;SDS011;18457;52.432;16.914;2023-05-18T08:17:29;3.30;;;1.00;;
31910;SDS011;18457;52.432;16.914;2023-05-18T08:20:01;5.10;;;0.90;;
31910;SDS011;18457;52.432;16.914;2023-05-18T08:25:05;3.60;;;1.40;;
31910;SDS011;18457;52.432;16.914;2023-05-18T08:27:38;5.30;;;1.30;;
31910;SDS011;18457;52.432;16.914;2023-05-18T08:30:11;1.90;;;1.10;;
31910;SDS011;18457;52.432;16.914;2023-05-18T08:32:43;2.40;;;1.10;;
31910;SDS011;18457;52.432;16.914;2023-05-18T08:35:15;9.20;;;1.50;;
31910;SDS011;18457;52.432;16.914;2023-05-18T08:37:47;5.20;;;1.60;;
31910;SDS011;18457;52.432;16.914;2023-05-18T08:40:19;4.80;;;1.40;;
31910;SDS011;18457;52.432;16.914;2023-05-18T08:42:56;4.10;;;1.20;;
31910;SDS011;18457;52.432;16.914;2023-05-18T08:45:39;8.30;;;1.50;;
31910;SDS011;18457;52.432;16.914;2023-05-18T08:48:16;4.20;;;1.00;;
31910;SDS011;18457;52.432;16.914;2023-05-18T08:50:55;3.80;;;1.40;;
31910;SDS011;18457;52.432;16.914;2023-05-18T08:53:31;6.20;;;1.20;;
31910;SDS011;18457;52.432;16.914;2023-05-18T08:56:05;4.60;;;1.70;;
31910;SDS011;18457;52.432;16.914;2023-05-18T08:58:41;5.70;;;1.00;;
31910;SDS011;18457;52.432;16.914;2023-05-18T09:01:17;4.00;;;0.90;;
31910;SDS011;18457;52.432;16.914;2023-05-18T09:03:50;4.00;;;1.00;;
31910;SDS011;18457;52.432;16.914;2023-05-18T09:06:23;4.80;;;1.20;;
31910;SDS011;18457;52.432;16.914;2023-05-18T09:08:56;7.60;;;1.10;;
31910;SDS011;18457;52.432;16.914;2023-05-18T09:11:32;1.10;;;0.90;;
31910;SDS011;18457;52.432;16.914;2023-05-18T09:14:05;1.70;;;0.90;;
31910;SDS011;18457;52.432;16.914;2023-05-18T09:16:36;4.10;;;1.10;;
31910;SDS011;18457;52.432;16.914;2023-05-18T09:19:08;8.30;;;1.50;;
31910;SDS011;18457;52.432;16.914;2023-05-18T09:21:40;4.60;;;1.30;;
31910;SDS011;18457;52.432;16.914;2023-05-18T09:24:12;4.30;;;2.10;;
31910;SDS011;18457;52.432;16.914;2023-05-18T09:26:44;7.40;;;1.80;;
31910;SDS011;18457;52.432;16.914;2023-05-18T09:29:16;3.70;;;1.30;;
31910;SDS011;18457;52.432;16.914;2023-05-18T09:31:49;1.90;;;1.10;;
31910;SDS011;18457;52.432;16.914;2023-05-18T09:36:52;2.10;;;1.30;;
31910;SDS011;18457;52.432;16.914;2023-05-18T09:41:55;3.50;;;1.20;;
31910;SDS011;18457;52.432;16.914;2023-05-18T09:44:31;4.40;;;1.10;;
31910;SDS011;18457;52.432;16.914;2023-05-18T09:47:07;4.50;;;1.20;;
31910;SDS011;18457;52.432;16.914;2023-05-18T09:49:40;1.60;;;1.20;;
31910;SDS011;18457;52.432;16.914;2023-05-18T09:52:12;2.20;;;0.70;;
31910;SDS011;18457;52.432;16.914;2023-05-18T09:54:51;4.80;;;0.90;;
31910;SDS011;18457;52.432;16.914;2023-05-18T09:57:26;2.10;;;0.90;;
31910;SDS011;18457;52.432;16.914;2023-05-18T10:00:03;2.60;;;1.00;;
31910;SDS011;18457;52.432;16.914;2023-05-18T10:02:39;1.70;;;1.00;;
31910;SDS011;18457;52.432;16.914;2023-05-18T10:05:20;4.20;;;1.20;;
31910;SDS011;18457;52.432;16.914;2023-05-18T10:07:53;8.60;;;1.80;;
31910;SDS011;18457;52.432;16.914;2023-05-18T10:10:26;5.50;;;1.30;;
31910;SDS011;18457;52.432;16.914;2023-05-18T10:12:59;3.80;;;1.40;;
31910;SDS011;18457;52.432;16.914;2023-05-18T10:15:32;4.00;;;1.00;;
31910;SDS011;18457;52.432;16.914;2023-05-18T10:18:06;6.40;;;1.30;;
31910;SDS011;18457;52.432;16.914;2023-05-18T10:20:37;11.40;;;1.50;;
31910;SDS011;18457;52.432;16.914;2023-05-18T10:23:11;13.10;;;1.70;;
31910;SDS011;18457;52.432;16.914;2023-05-18T10:25:44;5.00;;;1.20;;
31910;SDS011;18457;52.432;16.914;2023-05-18T10:28:19;2.20;;;0.90;;
31910;SDS011;18457;52.432;16.914;2023-05-18T10:30:57;1.70;;;1.00;;
31910;SDS011;18457;52.432;16.914;2023-05-18T10:33:29;4.90;;;1.20;;
31910;SDS011;18457;52.432;16.914;2023-05-18T10:36:03;2.40;;;1.20;;
31910;SDS011;18457;52.432;16.914;2023-05-18T10:38:36;7.10;;;1.60;;
31910;SDS011;18457;52.432;16.914;2023-05-18T10:41:11;4.00;;;1.30;;
31910;SDS011;18457;52.432;16.914;2023-05-18T10:43:44;21.90;;;1.80;;
31910;SDS011;18457;52.432;16.914;2023-05-18T10:46:16;1.30;;;1.00;;
31910;SDS011;18457;52.432;16.914;2023-05-18T10:48:54;4.50;;;1.10;;
31910;SDS011;18457;52.432;16.914;2023-05-18T10:51:29;5.90;;;1.30;;
31910;SDS011;18457;52.432;16.914;2023-05-18T10:54:06;3.50;;;1.10;;
31910;SDS011;18457;52.432;16.914;2023-05-18T10:56:43;8.40;;;1.30;;
31910;SDS011;18457;52.432;16.914;2023-05-18T10:59:18;5.70;;;1.50;;
31910;SDS011;18457;52.432;16.914;2023-05-18T11:01:52;1.70;;;1.00;;
31910;SDS011;18457;52.432;16.914;2023-05-18T11:04:27;3.80;;;1.20;;
31910;SDS011;18457;52.432;16.914;2023-05-18T11:09:31;1.60;;;1.10;;
31910;SDS011;18457;52.432;16.914;2023-05-18T11:12:04;5.00;;;1.40;;
31910;SDS011;18457;52.432;16.914;2023-05-18T11:14:49;7.30;;;2.20;;
31910;SDS011;18457;52.432;16.914;2023-05-18T11:17:22;5.50;;;1.20;;
31910;SDS011;18457;52.432;16.914;2023-05-18T11:20:14;1.50;;;1.20;;
31910;SDS011;18457;52.432;16.914;2023-05-18T11:22:48;4.80;;;1.40;;
31910;SDS011;18457;52.432;16.914;2023-05-18T11:25:36;2.40;;;1.10;;
31910;SDS011;18457;52.432;16.914;2023-05-18T11:28:17;2.60;;;1.20;;
31910;SDS011;18457;52.432;16.914;2023-05-18T11:30:52;5.90;;;1.40;;
31910;SDS011;18457;52.432;16.914;2023-05-18T11:33:25;1.80;;;1.00;;
31910;SDS011;18457;52.432;16.914;2023-05-18T11:36:02;10.10;;;1.10;;
31910;SDS011;18457;52.432;16.914;2023-05-18T11:38:46;2.70;;;1.10;;
31910;SDS011;18457;52.432;16.914;2023-05-18T11:41:32;3.90;;;1.10;;
31910;SDS011;18457;52.432;16.914;2023-05-18T11:44:16;2.70;;;1.00;;
31910;SDS011;18457;52.432;16.914;2023-05-18T11:49:24;6.50;;;2.30;;
31910;SDS011;18457;52.432;16.914;2023-05-18T11:52:02;2.50;;;1.00;;
31910;SDS011;18457;52.432;16.914;2023-05-18T11:54:40;2.30;;;1.00;;
31910;SDS011;18457;52.432;16.914;2023-05-18T11:57:15;2.70;;;0.90;;
31910;SDS011;18457;52.432;16.914;2023-05-18T11:59:53;6.70;;;1.30;;
31910;SDS011;18457;52.432;16.914;2023-05-18T12:02:26;5.00;;;1.20;;
31910;SDS011;18457;52.432;16.914;2023-05-18T12:05:01;1.30;;;0.90;;
31910;SDS011;18457;52.432;16.914;2023-05-18T12:07:37;1.40;;;1.00;;
31910;SDS011;18457;52.432;16.914;2023-05-18T12:10:11;4.00;;;1.10;;
31910;SDS011;18457;52.432;16.914;2023-05-18T12:12:45;4.10;;;0.90;;
31910;SDS011;18457;52.432;16.914;2023-05-18T12:15:22;6.50;;;0.90;;
31910;SDS011;18457;52.432;16.914;2023-05-18T12:17:57;1.30;;;1.20;;
31910;SDS011;18457;52.432;16.914;2023-05-18T12:23:00;2.70;;;1.10;;
31910;SDS011;18457;52.432;16.914;2023-05-18T12:25:32;20.90;;;2.20;;
31910;SDS011;18457;52.432;16.914;2023-05-18T12:28:04;2.00;;;1.20;;
31910;SDS011;18457;52.432;16.914;2023-05-18T12:30:37;3.90;;;1.30;;
31910;SDS011;18457;52.432;16.914;2023-05-18T12:33:12;9.00;;;1.40;;
31910;SDS011;18457;52.432;16.914;2023-05-18T12:35:44;3.90;;;1.20;;
31910;SDS011;18457;52.432;16.914;2023-05-18T12:38:17;4.40;;;1.10;;
31910;SDS011;18457;52.432;16.914;2023-05-18T12:40:49;3.60;;;1.30;;
31910;SDS011;18457;52.432;16.914;2023-05-18T12:43:22;3.90;;;1.20;;
31910;SDS011;18457;52.432;16.914;2023-05-18T12:45:55;2.60;;;0.90;;
31910;SDS011;18457;52.432;16.914;2023-05-18T12:48:36;4.10;;;1.40;;
31910;SDS011;18457;52.432;16.914;2023-05-18T12:51:18;2.80;;;1.10;;
31910;SDS011;18457;52.432;16.914;2023-05-18T12:53:50;4.40;;;1.00;;
31910;SDS011;18457;52.432;16.914;2023-05-18T12:56:22;3.30;;;1.10;;
31910;SDS011;18457;52.432;16.914;2023-05-18T12:58:55;6.50;;;1.20;;
31910;SDS011;18457;52.432;16.914;2023-05-18T13:01:28;4.70;;;1.30;;
31910;SDS011;18457;52.432;16.914;2023-05-18T13:04:11;2.00;;;1.30;;
31910;SDS011;18457;52.432;16.914;2023-05-18T13:09:15;5.00;;;1.30;;
31910;SDS011;18457;52.432;16.914;2023-05-18T13:11:48;5.40;;;1.20;;
31910;SDS011;18457;52.432;16.914;2023-05-18T13:14:37;3.20;;;1.10;;
31910;SDS011;18457;52.432;16.914;2023-05-18T13:17:10;2.00;;;1.20;;
31910;SDS011;18457;52.432;16.914;2023-05-18T13:19:56;1.80;;;1.00;;
31910;SDS011;18457;52.432;16.914;2023-05-18T13:22:28;2.40;;;1.20;;
31910;SDS011;18457;52.432;16.914;2023-05-18T13:25:00;4.00;;;1.00;;
31910;SDS011;18457;52.432;16.914;2023-05-18T13:27:32;2.80;;;1.20;;
31910;SDS011;18457;52.432;16.914;2023-05-18T13:30:06;2.30;;;1.50;;
31910;SDS011;18457;52.432;16.914;2023-05-18T13:32:39;2.20;;;1.30;;
31910;SDS011;18457;52.432;16.914;2023-05-18T13:35:11;2.00;;;1.00;;
31910;SDS011;18457;52.432;16.914;2023-05-18T13:37:42;5.30;;;1.20;;
31910;SDS011;18457;52.432;16.914;2023-05-18T13:40:17;21.70;;;1.80;;
31910;SDS011;18457;52.432;16.914;2023-05-18T13:42:49;9.10;;;1.30;;
31910;SDS011;18457;52.432;16.914;2023-05-18T13:45:22;3.00;;;1.00;;
31910;SDS011;18457;52.432;16.914;2023-05-18T13:47:54;1.90;;;1.40;;
31910;SDS011;18457;52.432;16.914;2023-05-18T13:50:26;18.30;;;2.30;;
31910;SDS011;18457;52.432;16.914;2023-05-18T13:52:59;6.00;;;1.30;;
31910;SDS011;18457;52.432;16.914;2023-05-18T13:55:31;10.70;;;1.70;;
31910;SDS011;18457;52.432;16.914;2023-05-18T13:58:03;2.60;;;1.40;;
31910;SDS011;18457;52.432;16.914;2023-05-18T14:00:35;7.60;;;1.70;;
31910;SDS011;18457;52.432;16.914;2023-05-18T14:03:08;5.00;;;1.40;;
31910;SDS011;18457;52.432;16.914;2023-05-18T14:05:40;5.30;;;1.50;;
31910;SDS011;18457;52.432;16.914;2023-05-18T14:08:12;3.80;;;1.10;;
31910;SDS011;18457;52.432;16.914;2023-05-18T14:10:44;2.50;;;1.60;;
31910;SDS011;18457;52.432;16.914;2023-05-18T14:13:15;4.60;;;1.20;;
31910;SDS011;18457;52.432;16.914;2023-05-18T14:15:47;3.70;;;1.20;;
31910;SDS011;18457;52.432;16.914;2023-05-18T14:18:19;3.60;;;1.30;;
31910;SDS011;18457;52.432;16.914;2023-05-18T14:20:51;2.70;;;1.60;;
31910;SDS011;18457;52.432;16.914;2023-05-18T14:23:25;5.00;;;1.10;;
31910;SDS011;18457;52.432;16.914;2023-05-18T14:25:57;6.00;;;1.20;;
31910;SDS011;18457;52.432;16.914;2023-05-18T14:28:29;9.20;;;1.50;;
31910;SDS011;18457;52.432;16.914;2023-05-18T14:31:00;1.80;;;1.30;;
31910;SDS011;18457;52.432;16.914;2023-05-18T14:33:32;5.20;;;1.50;;
31910;SDS011;18457;52.432;16.914;2023-05-18T14:36:04;4.50;;;1.20;;
31910;SDS011;18457;52.432;16.914;2023-05-18T14:38:36;8.10;;;2.40;;
31910;SDS011;18457;52.432;16.914;2023-05-18T14:41:09;20.30;;;1.20;;
31910;SDS011;18457;52.432;16.914;2023-05-18T14:43:41;9.60;;;1.60;;
31910;SDS011;18457;52.432;16.914;2023-05-18T14:46:14;6.70;;;1.50;;
31910;SDS011;18457;52.432;16.914;2023-05-18T14:48:46;5.70;;;1.40;;
31910;SDS011;18457;52.432;16.914;2023-05-18T14:51:18;3.10;;;1.30;;
31910;SDS011;18457;52.432;16.914;2023-05-18T14:53:51;2.40;;;1.00;;
31910;SDS011;18457;52.432;16.914;2023-05-18T14:56:23;3.90;;;1.40;;
31910;SDS011;18457;52.432;16.914;2023-05-18T14:58:58;4.70;;;1.40;;
31910;SDS011;18457;52.432;16.914;2023-05-18T15:01:32;6.20;;;1.60;;
31910;SDS011;18457;52.432;16.914;2023-05-18T15:04:04;3.50;;;1.50;;
31910;SDS011;18457;52.432;16.914;2023-05-18T15:06:36;3.70;;;1.70;;
31910;SDS011;18457;52.432;16.914;2023-05-18T15:09:08;4.10;;;1.20;;
31910;SDS011;18457;52.432;16.914;2023-05-18T15:11:40;3.80;;;1.90;;
31910;SDS011;18457;52.432;16.914;2023-05-18T15:14:12;6.70;;;1.60;;
31910;SDS011;18457;52.432;16.914;2023-05-18T15:16:44;5.00;;;1.30;;
31910;SDS011;18457;52.432;16.914;2023-05-18T15:19:16;2.80;;;1.20;;
31910;SDS011;18457;52.432;16.914;2023-05-18T15:21:49;1.80;;;1.30;;
31910;SDS011;18457;52.432;16.914;2023-05-18T15:24:20;4.80;;;1.50;;
31910;SDS011;18457;52.432;16.914;2023-05-18T15:26:52;5.80;;;1.40;;
31910;SDS011;18457;52.432;16.914;2023-05-18T15:29:25;7.00;;;1.50;;
31910;SDS011;18457;52.432;16.914;2023-05-18T15:31:57;4.10;;;1.50;;
31910;SDS011;18457;52.432;16.914;2023-05-18T15:34:29;3.50;;;1.40;;
31910;SDS011;18457;52.432;16.914;2023-05-18T15:37:03;4.20;;;1.30;;
31910;SDS011;18457;52.432;16.914;2023-05-18T15:39:37;2.30;;;1.50;;
31910;SDS011;18457;52.432;16.914;2023-05-18T15:42:08;1.90;;;1.30;;
31910;SDS011;18457;52.432;16.914;2023-05-18T15:44:40;2.00;;;1.50;;
31910;SDS011;18457;52.432;16.914;2023-05-18T15:47:12;8.70;;;1.50;;
31910;SDS011;18457;52.432;16.914;2023-05-18T15:49:44;2.10;;;1.10;;
31910;SDS011;18457;52.432;16.914;2023-05-18T15:52:16;33.80;;;4.20;;
31910;SDS011;18457;52.432;16.914;2023-05-18T15:54:48;12.70;;;2.40;;
31910;SDS011;18457;52.432;16.914;2023-05-18T15:57:20;2.60;;;1.60;;